sensor_id;sensor_type;location;lat;lon;timestamp;pressure;altitude;pressure_sealevel;temperature;humidity
7662;BME280;30314;48.184;11.510;2023-05-10T00:00:44;95341.31;;;13.23;100.00
7662;BME280;30314;48.184;11.510;2023-05-10T00:03:12;95337.56;;;13.24;100.00
7662;BME280;30314;48.184;11.510;2023-05-10T00:05:38;95333.06;;;13.16;100.00
7662;BME280;30314;48.184;11.510;2023-05-10T00:08:05;95342.09;;;13.23;100.00
7662;BME280;30314;48.184;11.510;2023-05-10T00:10:31;95335.28;;;13.05;100.00
7662;BME280;30314;48.184;11.510;2023-05-10T00:12:58;95349.28;;;13.14;100.00
7662;BME280;30314;48.184;11.510;2023-05-10T00:15:24;95334.91;;;13.24;100.00
7662;BME280;30314;48.184;11.510;2023-05-10T00:17:51;95337.09;;;13.22;100.00
7662;BME280;30314;48.184;11.510;2023-05-10T00:20:18;95335.09;;;13.19;100.00
7662;BME280;30314;48.184;11.510;2023-05-10T00:22:44;95327.31;;;13.14;100.00
7662;BME280;30314;48.184;11.510;2023-05-10T00:25:11;95315.13;;;13.04;100.00
7662;BME280;30314;48.184;11.510;2023-05-10T00:27:37;95331.66;;;13.18;100.00
7662;BME280;30314;48.184;11.510;2023-05-10T00:30:05;95323.88;;;13.13;100.00
7662;BME280;30314;48.184;11.510;2023-05-10T00:32:33;95319.97;;;13.19;100.00
7662;BME280;30314;48.184;11.510;2023-05-10T00:35:00;95319.19;;;13.19;100.00
7662;BME280;30314;48.184;11.510;2023-05-10T00:37:27;95322.63;;;13.10;100.00
7662;BME280;30314;48.184;11.510;2023-05-10T00:39:54;95319.66;;;13.12;100.00
7662;BME280;30314;48.184;11.510;2023-05-10T00:42:20;95320.44;;;13.13;100.00
7662;BME280;30314;48.184;11.510;2023-05-10T00:44:47;95329.03;;;13.18;100.00
7662;BME280;30314;48.184;11.510;2023-05-10T00:47:13;95315.75;;;13.09;100.00
7662;BME280;30314;48.184;11.510;2023-05-10T00:49:40;95315.28;;;13.07;100.00
7662;BME280;30314;48.184;11.510;2023-05-10T00:52:09;95312.34;;;13.09;100.00
7662;BME280;30314;48.184;11.510;2023-05-10T00:54:36;95310.94;;;13.03;100.00
7662;BME280;30314;48.184;11.510;2023-05-10T00:57:02;95315.28;;;13.07;100.00
7662;BME280;30314;48.184;11.510;2023-05-10T00:59:29;95311.25;;;13.10;100.00
7662;BME280;30314;48.184;11.510;2023-05-10T01:01:57;95307.03;;;13.09;100.00
7662;BME280;30314;48.184;11.510;2023-05-10T01:04:24;95316.22;;;13.03;100.00
7662;BME280;30314;48.184;11.510;2023-05-10T01:06:52;95307.06;;;13.00;100.00
7662;BME280;30314;48.184;11.510;2023-05-10T01:09:21;95311.09;;;13.06;100.00
7662;BME280;30314;48.184;11.510;2023-05-10T01:11:48;95306.72;;;13.02;100.00
7662;BME280;30314;48.184;11.510;2023-05-10T01:14:17;95307.06;;;13.00;100.00
7662;BME280;30314;48.184;11.510;2023-05-10T01:16:47;95307.19;;;13.04;100.00
7662;BME280;30314;48.184;11.510;2023-05-10T01:19:26;95310.94;;;13.03;100.00
7662;BME280;30314;48.184;11.510;2023-05-10T01:30:08;95314.06;;;12.96;100.00
7662;BME280;30314;48.184;11.510;2023-05-10T01:38:07;95312.53;;;12.86;100.00
7662;BME280;30314;48.184;11.510;2023-05-10T01:40:43;95309.09;;;12.77;100.00
7662;BME280;30314;48.184;11.510;2023-05-10T01:43:22;95313.78;;;12.80;100.00
7662;BME280;30314;48.184;11.510;2023-05-10T01:45:58;95316.09;;;12.81;100.00
7662;BME280;30314;48.184;11.510;2023-05-10T01:48:27;95312.69;;;12.81;100.00
7662;BME280;30314;48.184;11.510;2023-05-10T01:50:56;95308.50;;;12.80;100.00
7662;BME280;30314;48.184;11.510;2023-05-10T01:53:23;95315.66;;;12.79;100.00
7662;BME280;30314;48.184;11.510;2023-05-10T01:55:52;95309.56;;;12.79;100.00
7662;BME280;30314;48.184;11.510;2023-05-10T01:58:23;95299.09;;;12.65;100.00
7662;BME280;30314;48.184;11.510;2023-05-10T02:00:52;95312.84;;;12.76;100.00
7662;BME280;30314;48.184;11.510;2023-05-10T02:03:23;95309.72;;;12.74;100.00
7662;BME280;30314;48.184;11.510;2023-05-10T02:05:52;95310.34;;;12.79;100.00
7662;BME280;30314;48.184;11.510;2023-05-10T02:08:21;95310.81;;;12.73;100.00
7662;BME280;30314;48.184;11.510;2023-05-10T02:10:50;95310.50;;;12.74;100.00
7662;BME280;30314;48.184;11.510;2023-05-10T02:13:18;95310.81;;;12.73;100.00
7662;BME280;30314;48.184;11.510;2023-05-10T02:15:47;95313.91;;;12.66;100.00
7662;BME280;30314;48.184;11.510;2023-05-10T02:18:15;95306.28;;;12.64;100.00
7662;BME280;30314;48.184;11.510;2023-05-10T02:20:45;95317.81;;;12.68;100.00
7662;BME280;30314;48.184;11.510;2023-05-10T02:23:16;95311.72;;;12.68;100.00
7662;BME280;30314;48.184;11.510;2023-05-10T02:25:44;95314.69;;;12.66;100.00
7662;BME280;30314;48.184;11.510;2023-05-10T02:28:14;95312.34;;;12.65;100.00
7662;BME280;30314;48.184;11.510;2023-05-10T02:30:41;95317.47;;;12.61;100.00
7662;BME280;30314;48.184;11.510;2023-05-10T02:33:10;95321.84;;;12.57;100.00
7662;BME280;30314;48.184;11.510;2023-05-10T02:35:38;95316.25;;;12.59;100.00
7662;BME280;30314;48.184;11.510;2023-05-10T02:38:05;95315.47;;;12.58;100.00
7662;BME280;30314;48.184;11.510;2023-05-10T02:40:33;95317.47;;;12.70;100.00
7662;BME280;30314;48.184;11.510;2023-05-10T02:43:01;95311.09;;;12.62;100.00
7662;BME280;30314;48.184;11.510;2023-05-10T02:45:31;95316.56;;;12.57;100.00
7662;BME280;30314;48.184;11.510;2023-05-10T02:47:59;95309.06;;;12.59;100.00
7662;BME280;30314;48.184;11.510;2023-05-10T02:50:28;95313.44;;;12.55;100.00
7662;BME280;30314;48.184;11.510;2023-05-10T02:53:00;95311.25;;;12.57;100.00
7662;BME280;30314;48.184;11.510;2023-05-10T02:55:33;95312.19;;;12.52;100.00
7662;BME280;30314;48.184;11.510;2023-05-10T02:58:02;95314.06;;;12.52;100.00
7662;BME280;30314;48.184;11.510;2023-05-10T03:00:29;95300.50;;;12.45;100.00
7662;BME280;30314;48.184;11.510;2023-05-10T03:02:56;95316.72;;;12.52;100.00
7662;BME280;30314;48.184;11.510;2023-05-10T03:05:23;95318.56;;;12.51;100.00
7662;BME280;30314;48.184;11.510;2023-05-10T03:07:50;95320.59;;;12.46;100.00
7662;BME280;30314;48.184;11.510;2023-05-10T03:10:18;95322.94;;;12.47;100.00
7662;BME280;30314;48.184;11.510;2023-05-10T03:12:57;95318.75;;;12.55;100.00
7662;BME280;30314;48.184;11.510;2023-05-10T03:18:27;95317.66;;;12.47;100.00
7662;BME280;30314;48.184;11.510;2023-05-10T03:20:57;95319.97;;;12.49;100.00
7662;BME280;30314;48.184;11.510;2023-05-10T03:23:58;95324.19;;;12.59;100.00
7662;BME280;30314;48.184;11.510;2023-05-10T03:26:27;95323.88;;;12.51;100.00
7662;BME280;30314;48.184;11.510;2023-05-10T03:29:06;95334.94;;;12.62;100.00
7662;BME280;30314;48.184;11.510;2023-05-10T03:31:32;95323.09;;;12.60;100.00
7662;BME280;30314;48.184;11.510;2023-05-10T03:33:59;95330.88;;;12.56;100.00
7662;BME280;30314;48.184;11.510;2023-05-10T03:36:26;95334.16;;;12.62;100.00
7662;BME280;30314;48.184;11.510;2023-05-10T03:38:54;95331.19;;;12.63;100.00
7662;BME280;30314;48.184;11.510;2023-05-10T03:41:21;95341.03;;;12.63;100.00
7662;BME280;30314;48.184;11.510;2023-05-10T03:43:47;95343.22;;;12.61;100.00
7662;BME280;30314;48.184;11.510;2023-05-10T03:46:14;95343.81;;;12.58;100.00
7662;BME280;30314;48.184;11.510;2023-05-10T03:48:41;95339.31;;;12.58;100.00
7662;BME280;30314;48.184;11.510;2023-05-10T03:51:07;95339.47;;;12.53;100.00
7662;BME280;30314;48.184;11.510;2023-05-10T03:53:34;95344.59;;;12.58;100.00
7662;BME280;30314;48.184;11.510;2023-05-10T03:56:00;95352.84;;;12.57;100.00
7662;BME280;30314;48.184;11.510;2023-05-10T03:58:27;95350.19;;;12.57;100.00
7662;BME280;30314;48.184;11.510;2023-05-10T04:00:54;95356.91;;;12.54;100.00
7662;BME280;30314;48.184;11.510;2023-05-10T04:03:20;95353.00;;;12.60;100.00
7662;BME280;30314;48.184;11.510;2023-05-10T04:05:47;95354.72;;;12.56;100.00
7662;BME280;30314;48.184;11.510;2023-05-10T04:08:13;95364.84;;;12.54;100.00
7662;BME280;30314;48.184;11.510;2023-05-10T04:10:42;95357.38;;;12.56;100.00
7662;BME280;30314;48.184;11.510;2023-05-10T04:13:09;95354.91;;;12.60;100.00
7662;BME280;30314;48.184;11.510;2023-05-10T04:15:36;95354.56;;;12.61;100.00
7662;BME280;30314;48.184;11.510;2023-05-10T04:18:02;95358.97;;;12.75;100.00
7662;BME280;30314;48.184;11.510;2023-05-10T04:20:32;95355.03;;;12.63;100.00
7662;BME280;30314;48.184;11.510;2023-05-10T04:22:58;95358.31;;;12.60;100.00
7662;BME280;30314;48.184;11.510;2023-05-10T04:25:25;95356.28;;;12.57;100.00
7662;BME280;30314;48.184;11.510;2023-05-10T04:27:51;95361.41;;;12.53;100.00
7662;BME280;30314;48.184;11.510;2023-05-10T04:30:18;95366.41;;;12.55;100.00
7662;BME280;30314;48.184;11.510;2023-05-10T04:32:45;95358.47;;;12.64;100.00
7662;BME280;30314;48.184;11.510;2023-05-10T04:35:11;95362.34;;;12.58;100.00
7662;BME280;30314;48.184;11.510;2023-05-10T04:37:38;95364.84;;;12.54;100.00
7662;BME280;30314;48.184;11.510;2023-05-10T04:40:05;95363.94;;;12.59;100.00
7662;BME280;30314;48.184;11.510;2023-05-10T04:42:32;95370.16;;;12.54;100.00
7662;BME280;30314;48.184;11.510;2023-05-10T04:44:59;95370.91;;;12.54;100.00
7662;BME280;30314;48.184;11.510;2023-05-10T04:47:25;95362.50;;;12.61;100.00
7662;BME280;30314;48.184;11.510;2023-05-10T04:49:52;95357.38;;;12.56;100.00
7662;BME280;30314;48.184;11.510;2023-05-10T04:52:18;95369.69;;;12.52;100.00
7662;BME280;30314;48.184;11.510;2023-05-10T04:54:45;95377.63;;;12.52;100.00
7662;BME280;30314;48.184;11.510;2023-05-10T04:57:11;95382.94;;;12.52;100.00
7662;BME280;30314;48.184;11.510;2023-05-10T04:59:38;95385.41;;;12.57;100.00
7662;BME280;30314;48.184;11.510;2023-05-10T05:02:04;95393.06;;;12.59;100.00
7662;BME280;30314;48.184;11.510;2023-05-10T05:04:31;95395.22;;;12.48;100.00
7662;BME280;30314;48.184;11.510;2023-05-10T05:06:58;95405.50;;;12.40;100.00
7662;BME280;30314;48.184;11.510;2023-05-10T05:09:25;95400.63;;;12.25;100.00
7662;BME280;30314;48.184;11.510;2023-05-10T05:11:51;95409.97;;;12.31;100.00
7662;BME280;30314;48.184;11.510;2023-05-10T05:14:18;95411.69;;;12.27;100.00
7662;BME280;30314;48.184;11.510;2023-05-10T05:16:44;95405.13;;;12.24;100.00
7662;BME280;30314;48.184;11.510;2023-05-10T05:19:11;95416.63;;;12.20;100.00
7662;BME280;30314;48.184;11.510;2023-05-10T05:21:37;95423.13;;;12.05;100.00
7662;BME280;30314;48.184;11.510;2023-05-10T05:24:04;95417.06;;;12.04;100.00
7662;BME280;30314;48.184;11.510;2023-05-10T05:26:31;95428.06;;;11.97;100.00
7662;BME280;30314;48.184;11.510;2023-05-10T05:28:58;95430.44;;;11.99;100.00
7662;BME280;30314;48.184;11.510;2023-05-10T05:31:24;95424.81;;;12.01;100.00
7662;BME280;30314;48.184;11.510;2023-05-10T05:33:51;95432.56;;;11.97;100.00
7662;BME280;30314;48.184;11.510;2023-05-10T05:36:18;95425.81;;;11.82;100.00
7662;BME280;30314;48.184;11.510;2023-05-10T05:38:44;95435.00;;;11.84;100.00
7662;BME280;30314;48.184;11.510;2023-05-10T05:41:11;95434.41;;;11.88;100.00
7662;BME280;30314;48.184;11.510;2023-05-10T05:43:37;95440.81;;;11.87;100.00
7662;BME280;30314;48.184;11.510;2023-05-10T05:46:04;95439.16;;;11.77;100.00
7662;BME280;30314;48.184;11.510;2023-05-10T05:48:31;95441.28;;;11.89;100.00
7662;BME280;30314;48.184;11.510;2023-05-10T05:50:57;95442.41;;;11.96;100.00
7662;BME280;30314;48.184;11.510;2023-05-10T05:53:24;95433.59;;;11.78;100.00
7662;BME280;30314;48.184;11.510;2023-05-10T05:55:55;95442.84;;;11.90;100.00
7662;BME280;30314;48.184;11.510;2023-05-10T05:58:22;95445.44;;;11.81;100.00
7662;BME280;30314;48.184;11.510;2023-05-10T06:00:49;95454.69;;;11.92;100.00
7662;BME280;30314;48.184;11.510;2023-05-10T06:03:16;95454.53;;;11.97;100.00
7662;BME280;30314;48.184;11.510;2023-05-10T06:05:43;95454.25;;;11.99;100.00
7662;BME280;30314;48.184;11.510;2023-05-10T06:08:10;95452.88;;;12.10;100.00
7662;BME280;30314;48.184;11.510;2023-05-10T06:10:36;95465.06;;;12.11;100.00
7662;BME280;30314;48.184;11.510;2023-05-10T06:13:03;95465.06;;;12.11;100.00
7662;BME280;30314;48.184;11.510;2023-05-10T06:15:30;95468.94;;;12.14;100.00
7662;BME280;30314;48.184;11.510;2023-05-10T06:17:56;95465.53;;;12.14;100.00
7662;BME280;30314;48.184;11.510;2023-05-10T06:20:23;95475.34;;;12.22;100.00
7662;BME280;30314;48.184;11.510;2023-05-10T06:22:49;95482.50;;;12.12;100.00
7662;BME280;30314;48.184;11.510;2023-05-10T06:25:16;95482.69;;;12.25;100.00
7662;BME280;30314;48.184;11.510;2023-05-10T06:27:44;95485.69;;;12.32;100.00
7662;BME280;30314;48.184;11.510;2023-05-10T06:30:15;95462.72;;;12.19;100.00
7662;BME280;30314;48.184;11.510;2023-05-10T06:32:41;95493.97;;;12.39;100.00
7662;BME280;30314;48.184;11.510;2023-05-10T06:35:10;95492.44;;;12.47;100.00
7662;BME280;30314;48.184;11.510;2023-05-10T06:37:36;95492.59;;;12.51;100.00
7662;BME280;30314;48.184;11.510;2023-05-10T06:40:04;95492.31;;;12.61;100.00
7662;BME280;30314;48.184;11.510;2023-05-10T06:42:30;95496.69;;;12.57;100.00
7662;BME280;30314;48.184;11.510;2023-05-10T06:44:57;95483.69;;;12.47;100.00
7662;BME280;30314;48.184;11.510;2023-05-10T06:47:23;95495.88;;;12.57;100.00
7662;BME280;30314;48.184;11.510;2023-05-10T06:49:50;95497.63;;;12.61;100.00
7662;BME280;30314;48.184;11.510;2023-05-10T06:52:17;95499.16;;;12.62;100.00
7662;BME280;30314;48.184;11.510;2023-05-10T06:54:44;95503.53;;;12.58;100.00
7662;BME280;30314;48.184;11.510;2023-05-10T06:57:10;95498.06;;;12.54;100.00
7662;BME280;30314;48.184;11.510;2023-05-10T06:59:55;95499.47;;;12.52;100.00
7662;BME280;30314;48.184;11.510;2023-05-10T07:02:22;95498.06;;;12.54;100.00
7662;BME280;30314;48.184;11.510;2023-05-10T07:04:49;95500.88;;;12.58;100.00
7662;BME280;30314;48.184;11.510;2023-05-10T07:07:16;95502.72;;;12.49;100.00
7662;BME280;30314;48.184;11.510;2023-05-10T07:09:42;95513.66;;;12.56;100.00
7662;BME280;30314;48.184;11.510;2023-05-10T07:12:09;95508.22;;;12.61;100.00
7662;BME280;30314;48.184;11.510;2023-05-10T07:14:40;95513.59;;;12.79;100.00
7662;BME280;30314;48.184;11.510;2023-05-10T07:17:06;95511.28;;;12.95;100.00
7662;BME280;30314;48.184;11.510;2023-05-10T07:19:33;95511.63;;;13.11;100.00
7662;BME280;30314;48.184;11.510;2023-05-10T07:22:00;95518.66;;;13.24;100.00
7662;BME280;30314;48.184;11.510;2023-05-10T07:24:27;95516.00;;;13.24;100.00
7662;BME280;30314;48.184;11.510;2023-05-10T07:26:53;95513.38;;;13.24;100.00
7662;BME280;30314;48.184;11.510;2023-05-10T07:29:20;95518.06;;;13.45;100.00
7662;BME280;30314;48.184;11.510;2023-05-10T07:31:46;95512.28;;;13.34;100.00
7662;BME280;30314;48.184;11.510;2023-05-10T07:34:13;95520.38;;;13.38;100.00
7662;BME280;30314;48.184;11.510;2023-05-10T07:36:40;95510.72;;;13.33;100.00
7662;BME280;30314;48.184;11.510;2023-05-10T07:39:07;95515.53;;;13.22;100.00
7662;BME280;30314;48.184;11.510;2023-05-10T07:41:33;95515.38;;;13.19;100.00
7662;BME280;30314;48.184;11.510;2023-05-10T07:44:01;95517.28;;;13.18;100.00
7662;BME280;30314;48.184;11.510;2023-05-10T07:46:27;95500.69;;;13.04;100.00
7662;BME280;30314;48.184;11.510;2023-05-10T07:48:55;95507.13;;;13.29;100.00
7662;BME280;30314;48.184;11.510;2023-05-10T07:51:21;95526.00;;;13.54;100.00
7662;BME280;30314;48.184;11.510;2023-05-10T07:53:48;95518.84;;;13.72;100.00
7662;BME280;30314;48.184;11.510;2023-05-10T07:56:21;95523.19;;;13.77;100.00
7662;BME280;30314;48.184;11.510;2023-05-10T07:58:48;95525.53;;;13.78;100.00
7662;BME280;30314;48.184;11.510;2023-05-10T08:01:15;95504.63;;;13.68;100.00
7662;BME280;30314;48.184;11.510;2023-05-10T08:03:41;95501.47;;;13.75;100.00
7662;BME280;30314;48.184;11.510;2023-05-10T08:06:08;95498.69;;;13.71;100.00
7662;BME280;30314;48.184;11.510;2023-05-10T08:08:35;95499.47;;;13.72;100.00
7662;BME280;30314;48.184;11.510;2023-05-10T08:11:01;95528.34;;;13.82;100.00
7662;BME280;30314;48.184;11.510;2023-05-10T08:13:28;95515.50;;;13.93;100.00
7662;BME280;30314;48.184;11.510;2023-05-10T08:15:54;95522.84;;;14.05;100.00
7662;BME280;30314;48.184;11.510;2023-05-10T08:18:21;95521.78;;;13.97;100.00
7662;BME280;30314;48.184;11.510;2023-05-10T08:20:48;95488.22;;;13.66;100.00
7662;BME280;30314;48.184;11.510;2023-05-10T08:23:14;95512.53;;;14.03;100.00
7662;BME280;30314;48.184;11.510;2023-05-10T08:25:41;95448.00;;;13.55;100.00
7662;BME280;30314;48.184;11.510;2023-05-10T08:28:08;95476.53;;;13.49;100.00
7662;BME280;30314;48.184;11.510;2023-05-10T08:30:37;95471.09;;;13.46;100.00
7662;BME280;30314;48.184;11.510;2023-05-10T08:33:03;95511.50;;;13.51;100.00
7662;BME280;30314;48.184;11.510;2023-05-10T08:35:30;95533.34;;;13.57;100.00
7662;BME280;30314;48.184;11.510;2023-05-10T08:37:57;95526.50;;;13.47;100.00
7662;BME280;30314;48.184;11.510;2023-05-10T08:40:25;95508.53;;;13.35;100.00
7662;BME280;30314;48.184;11.510;2023-05-10T08:43:00;95547.53;;;13.44;100.00
7662;BME280;30314;48.184;11.510;2023-05-10T08:45:33;95520.06;;;13.22;100.00
7662;BME280;30314;48.184;11.510;2023-05-10T08:48:01;95525.53;;;13.25;100.00
7662;BME280;30314;48.184;11.510;2023-05-10T08:50:29;95521.78;;;13.27;100.00
7662;BME280;30314;48.184;11.510;2023-05-10T08:52:59;95514.75;;;13.22;100.00
7662;BME280;30314;48.184;11.510;2023-05-10T08:55:27;95498.53;;;13.23;100.00
7662;BME280;30314;48.184;11.510;2023-05-10T08:57:54;95491.34;;;13.15;100.00
7662;BME280;30314;48.184;11.510;2023-05-10T09:00:21;95521.19;;;13.38;100.00
7662;BME280;30314;48.184;11.510;2023-05-10T09:02:49;95502.47;;;13.35;100.00
7662;BME280;30314;48.184;11.510;2023-05-10T09:05:16;95519.94;;;13.71;100.00
7662;BME280;30314;48.184;11.510;2023-05-10T09:07:44;95501.50;;;13.66;100.00
7662;BME280;30314;48.184;11.510;2023-05-10T09:10:11;95515.38;;;13.80;100.00
7662;BME280;30314;48.184;11.510;2023-05-10T09:12:39;95503.84;;;13.76;100.00
7662;BME280;30314;48.184;11.510;2023-05-10T09:15:07;95536.47;;;13.86;100.00
7662;BME280;30314;48.184;11.510;2023-05-10T09:17:35;95494.63;;;13.65;100.00
7662;BME280;30314;48.184;11.510;2023-05-10T09:20:03;95514.16;;;13.78;100.00
7662;BME280;30314;48.184;11.510;2023-05-10T09:22:30;95512.22;;;13.96;100.00
7662;BME280;30314;48.184;11.510;2023-05-10T09:25:14;95487.34;;;14.09;100.00
7662;BME280;30314;48.184;11.510;2023-05-10T09:27:45;95484.97;;;14.34;100.00
7662;BME280;30314;48.184;11.510;2023-05-10T09:30:26;95540.94;;;14.68;100.00
7662;BME280;30314;48.184;11.510;2023-05-10T09:32:54;95535.13;;;14.75;100.00
7662;BME280;30314;48.184;11.510;2023-05-10T09:35:23;95532.50;;;14.66;100.00
7662;BME280;30314;48.184;11.510;2023-05-10T09:37:55;95535.75;;;14.72;100.00
7662;BME280;30314;48.184;11.510;2023-05-10T09:40:26;95496.03;;;14.45;100.00
7662;BME280;30314;48.184;11.510;2023-05-10T09:42:58;95534.16;;;14.79;100.00
7662;BME280;30314;48.184;11.510;2023-05-10T09:45:27;95527.94;;;14.75;100.00
7662;BME280;30314;48.184;11.510;2023-05-10T09:47:55;95531.47;;;14.88;100.00
7662;BME280;30314;48.184;11.510;2023-05-10T09:50:23;95530.84;;;14.91;100.00
7662;BME280;30314;48.184;11.510;2023-05-10T09:55:19;95453.59;;;14.28;100.00
7662;BME280;30314;48.184;11.510;2023-05-10T09:57:47;95512.34;;;14.65;100.00
7662;BME280;30314;48.184;11.510;2023-05-10T10:00:20;95497.16;;;14.74;100.00
7662;BME280;30314;48.184;11.510;2023-05-10T10:02:54;95511.63;;;14.86;100.00
7662;BME280;30314;48.184;11.510;2023-05-10T10:05:21;95514.59;;;14.84;100.00
7662;BME280;30314;48.184;11.510;2023-05-10T10:07:54;95520.06;;;14.88;100.00
7662;BME280;30314;48.184;11.510;2023-05-10T10:10:21;95521.72;;;14.71;100.00
7662;BME280;30314;48.184;11.510;2023-05-10T10:12:48;95463.00;;;14.25;100.00
7662;BME280;30314;48.184;11.510;2023-05-10T10:15:15;95508.53;;;14.45;100.00
7662;BME280;30314;48.184;11.510;2023-05-10T10:17:43;95439.47;;;13.97;100.00
7662;BME280;30314;48.184;11.510;2023-05-10T10:20:10;95530.63;;;14.67;100.00
7662;BME280;30314;48.184;11.510;2023-05-10T10:22:37;95487.72;;;14.47;100.00
7662;BME280;30314;48.184;11.510;2023-05-10T10:25:05;95496.59;;;14.60;100.00
7662;BME280;30314;48.184;11.510;2023-05-10T10:36:01;95499.25;;;14.90;100.00
7662;BME280;30314;48.184;11.510;2023-05-10T10:38:58;95507.38;;;14.93;100.00
7662;BME280;30314;48.184;11.510;2023-05-10T10:41:34;95505.25;;;14.78;100.00
7662;BME280;30314;48.184;11.510;2023-05-10T10:49:26;95514.25;;;14.64;100.00
7662;BME280;30314;48.184;11.510;2023-05-10T10:52:25;95506.72;;;14.67;100.00
7662;BME280;30314;48.184;11.510;2023-05-10T10:55:14;95509.38;;;14.67;100.00
7662;BME280;30314;48.184;11.510;2023-05-10T10:57:49;95514.34;;;14.77;100.00
7662;BME280;30314;48.184;11.510;2023-05-10T11:02:59;95496.91;;;14.58;100.00
7662;BME280;30314;48.184;11.510;2023-05-10T11:07:56;95481.25;;;14.57;100.00
7662;BME280;30314;48.184;11.510;2023-05-10T11:10:25;95493.47;;;14.58;100.00
7662;BME280;30314;48.184;11.510;2023-05-10T11:12:52;95514.34;;;14.68;100.00
7662;BME280;30314;48.184;11.510;2023-05-10T11:15:28;95488.75;;;14.63;100.00
7662;BME280;30314;48.184;11.510;2023-05-10T11:17:55;95514.59;;;14.84;100.00
7662;BME280;30314;48.184;11.510;2023-05-10T11:20:22;95517.50;;;14.70;100.00
7662;BME280;30314;48.184;11.510;2023-05-10T11:22:52;95515.81;;;14.57;100.00
7662;BME280;30314;48.184;11.510;2023-05-10T11:25:19;95517.78;;;14.30;100.00
7662;BME280;30314;48.184;11.510;2023-05-10T11:27:47;95505.81;;;14.15;100.00
7662;BME280;30314;48.184;11.510;2023-05-10T11:30:14;95524.22;;;14.20;100.00
7662;BME280;30314;48.184;11.510;2023-05-10T11:32:41;95508.66;;;13.92;100.00
7662;BME280;30314;48.184;11.510;2023-05-10T11:35:09;95514.75;;;13.84;100.00
7662;BME280;30314;48.184;11.510;2023-05-10T11:37:37;95524.44;;;13.71;100.00
7662;BME280;30314;48.184;11.510;2023-05-10T11:40:08;95526.94;;;13.76;100.00
7662;BME280;30314;48.184;11.510;2023-05-10T11:42:37;95553.94;;;13.87;100.00
7662;BME280;30314;48.184;11.510;2023-05-10T11:45:04;95535.38;;;13.51;100.00
7662;BME280;30314;48.184;11.510;2023-05-10T11:47:31;95490.88;;;13.13;100.00
7662;BME280;30314;48.184;11.510;2023-05-10T11:49:58;95543.03;;;13.53;100.00
7662;BME280;30314;48.184;11.510;2023-05-10T11:52:25;95512.25;;;13.17;100.00
7662;BME280;30314;48.184;11.510;2023-05-10T11:54:53;95560.00;;;13.43;100.00
7662;BME280;30314;48.184;11.510;2023-05-10T11:57:20;95559.41;;;13.37;100.00
7662;BME280;30314;48.184;11.510;2023-05-10T11:59:47;95540.34;;;13.18;100.00
7662;BME280;30314;48.184;11.510;2023-05-10T12:02:14;95559.19;;;13.16;100.00
7662;BME280;30314;48.184;11.510;2023-05-10T12:04:41;95555.44;;;13.08;100.00
7662;BME280;30314;48.184;11.510;2023-05-10T12:07:08;95550.75;;;12.96;100.00
7662;BME280;30314;48.184;11.510;2023-05-10T12:09:35;95541.22;;;12.87;100.00
7662;BME280;30314;48.184;11.510;2023-05-10T12:12:10;95551.78;;;12.78;100.00
7662;BME280;30314;48.184;11.510;2023-05-10T12:14:36;95566.31;;;12.89;100.00
7662;BME280;30314;48.184;11.510;2023-05-10T12:17:03;95554.75;;;12.85;100.00
7662;BME280;30314;48.184;11.510;2023-05-10T12:19:37;95535.41;;;12.76;100.00
7662;BME280;30314;48.184;11.510;2023-05-10T12:22:05;95569.59;;;12.95;100.00
7662;BME280;30314;48.184;11.510;2023-05-10T12:24:34;95561.44;;;12.82;100.00
7662;BME280;30314;48.184;11.510;2023-05-10T12:27:04;95563.88;;;12.70;100.00
7662;BME280;30314;48.184;11.510;2023-05-10T12:29:32;95566.50;;;12.70;100.00
7662;BME280;30314;48.184;11.510;2023-05-10T12:31:59;95599.03;;;12.85;100.00
7662;BME280;30314;48.184;11.510;2023-05-10T12:34:30;95569.50;;;12.68;100.00
7662;BME280;30314;48.184;11.510;2023-05-10T12:36:58;95566.50;;;12.61;100.00
7662;BME280;30314;48.184;11.510;2023-05-10T12:39:25;95590.69;;;12.68;100.00
7662;BME280;30314;48.184;11.510;2023-05-10T12:41:52;95605.38;;;12.75;100.00
7662;BME280;30314;48.184;11.510;2023-05-10T12:44:18;95597.06;;;12.67;100.00
7662;BME280;30314;48.184;11.510;2023-05-10T12:46:45;95586.88;;;12.52;100.00
7662;BME280;30314;48.184;11.510;2023-05-10T12:49:11;95587.09;;;12.64;100.00
7662;BME280;30314;48.184;11.510;2023-05-10T12:51:38;95574.84;;;12.46;100.00
7662;BME280;30314;48.184;11.510;2023-05-10T12:54:05;95612.28;;;12.53;100.00
7662;BME280;30314;48.184;11.510;2023-05-10T12:56:31;95599.75;;;12.45;100.00
7662;BME280;30314;48.184;11.510;2023-05-10T12:58:58;95554.84;;;12.08;100.00
7662;BME280;30314;48.184;11.510;2023-05-10T13:01:24;95547.63;;;12.00;100.00
7662;BME280;30314;48.184;11.510;2023-05-10T13:03:51;95606.38;;;12.33;100.00
7662;BME280;30314;48.184;11.510;2023-05-10T13:06:17;95607.69;;;12.45;100.00
7662;BME280;30314;48.184;11.510;2023-05-10T13:08:44;95591.13;;;12.30;100.00
7662;BME280;30314;48.184;11.510;2023-05-10T13:11:13;95574.09;;;12.22;100.00
7662;BME280;30314;48.184;11.510;2023-05-10T13:13:42;95614.75;;;12.49;100.00
7662;BME280;30314;48.184;11.510;2023-05-10T13:16:09;95603.69;;;12.47;100.00
7662;BME280;30314;48.184;11.510;2023-05-10T13:18:35;95614.75;;;12.49;100.00
7662;BME280;30314;48.184;11.510;2023-05-10T13:21:02;95563.03;;;12.20;100.00
7662;BME280;30314;48.184;11.510;2023-05-10T13:23:31;95573.84;;;12.33;100.00
7662;BME280;30314;48.184;11.510;2023-05-10T13:25:58;95562.66;;;12.13;100.00
7662;BME280;30314;48.184;11.510;2023-05-10T13:28:24;95553.13;;;12.03;100.00
7662;BME280;30314;48.184;11.510;2023-05-10T13:30:52;95595.63;;;12.30;100.00
7662;BME280;30314;48.184;11.510;2023-05-10T13:33:20;95578.50;;;12.27;100.00